Terminal Aerodrome Forecast
Issued by NWS

Home | Current Version | Previous Version | Text Only | Print | Product List | Glossary On
Versions: 1 2 3 4 5 6 7 8 9 10 11 12 13 14 15
000
FTAK31 PAJN 201100
TAFAGY
TAF
PAGY 201140Z 2012/2112 00000KT P6SM FEW100
     FM201800 VRB03KT P6SM BKN100
     FM202000 21010KT P6SM VCSH BKN100
     FM210400 21006KT P6SM SCT100
     FM210600 00000KT P6SM SKC
      AMD LTD TO CLD VIS AND WIND=

USA.gov is the U.S. government's official web portal to all federal, state and local government web resources and services.